Martin State Airport Baltimore US
ICAO: KMTN
IATA: MTN
Category: Medium
Scheduled Services: No

Elevation: 21 ft
TransAlt. 18000 ft.

Airport Communications:
POTOMAC APP/DEP:119
ATIS:124.925
AWOS 3:124.925
POTOMAC CLNC DEL:121.8
CTAF:121.3
GND:121.8
135 AG COMD POST:38.59
175 FG COMD POST:34.72
TWR:121.3
UNICOM:122.95

KMTN Zoom In..

Runways:

(A) RW 15 length 6997 ft width 180 ft
LOC 110.70 / hdg 146

(B) RW 33 length 6997 ft width 180 ft
LOC 110.70 / hdg 326

Location; KMTN
Day. 22 / Time. 04.24 Zulu
* Altimeter: 30.16
* Temperature: 05° c. 41°f.
* Wind from: 110° Speed 03 kn.
Dewpoint: 03° c.
Visibility: 10 Statute Miles.
Clouds: Overcast 9000 ft.

KMTN 220424Z AUTO 11003KT 10SM OVC090 05/03 A3016 RMK AO2


Wind From 110°
Speed 03 kn.

jpsM music video
CHECK IT OUT

jpsM - It Moves..

 
jpsmedia.com for Web Design  worldairports.se 2018   terms of use